Time;durP1;ratioP1;P1;durP2;ratioP2;P2;SDS_P1;SDS_P2;PMS_P1;PMS_P2;Temp;Humidity;BMP_temperature;BMP_pressure;BME280_temperature;BME280_humidity;BME280_pressure;Samples;Min_cycle;Max_cycle;Signal;HPM_P1;HPM_P2
2021/09/29 00:01:32;;;;;;;14.10;10.68;;;;;;;18.16;78.62;100711.97;5097075;28;20390;-59
2021/09/29 00:03:57;;;;;;;18.50;10.30;;;;;;;18.12;78.51;100712.09;5097225;28;20443;-59
2021/09/29 00:06:23;;;;;;;15.10;10.88;;;;;;;18.07;78.31;100703.28;5096946;28;20036;-59
2021/09/29 00:08:48;;;;;;;14.80;11.30;;;;;;;18.05;77.82;100714.28;5095071;28;20077;-58
2021/09/29 00:11:13;;;;;;;13.80;10.65;;;;;;;18.01;78.10;100705.06;5096980;28;20042;-59
2021/09/29 00:13:39;;;;;;;16.50;10.52;;;;;;;17.97;77.91;100708.00;5096940;28;20051;-58
2021/09/29 00:16:04;;;;;;;13.73;10.73;;;;;;;17.94;77.66;100711.75;5096468;28;20085;-59
2021/09/29 00:18:30;;;;;;;16.73;11.13;;;;;;;17.91;77.73;100719.13;5096826;28;20020;-59
2021/09/29 00:20:55;;;;;;;18.75;11.52;;;;;;;17.91;76.99;100715.47;5095948;28;20032;-57
2021/09/29 00:23:20;;;;;;;18.48;10.25;;;;;;;17.90;76.73;100717.53;5096617;28;20039;-59
2021/09/29 00:25:46;;;;;;;15.77;11.23;;;;;;;17.85;76.96;100712.38;5096476;28;20032;-59
2021/09/29 00:28:11;;;;;;;16.83;11.13;;;;;;;17.86;76.84;100719.66;5094802;28;20032;-59
2021/09/29 00:30:49;;;;;;;20.27;11.63;;;;;;;17.83;76.45;100709.19;5094301;28;20067;-60
2021/09/29 00:33:16;;;;;;;14.73;12.18;;;;;;;17.79;76.90;100716.19;5078803;28;20038;-59
2021/09/29 00:35:41;;;;;;;15.38;11.57;;;;;;;17.72;76.83;100710.69;5092005;28;20028;-59
2021/09/29 00:38:07;;;;;;;18.40;12.60;;;;;;;17.69;77.31;100708.72;5091667;28;20033;-59
2021/09/29 00:40:32;;;;;;;21.88;11.43;;;;;;;17.68;77.42;100695.75;5096297;28;20040;-59
2021/09/29 00:42:57;;;;;;;16.50;11.32;;;;;;;17.69;76.79;100708.72;5093316;28;20031;-59
2021/09/29 00:45:23;;;;;;;19.13;11.25;;;;;;;17.68;76.54;100704.28;5095866;28;20038;-59
2021/09/29 00:47:48;;;;;;;19.80;11.93;;;;;;;17.65;76.57;100703.09;5096369;28;20047;-59
2021/09/29 00:50:13;;;;;;;15.60;11.57;;;;;;;17.59;76.59;100700.00;5095825;28;20044;-59
2021/09/29 00:52:40;;;;;;;15.40;12.05;;;;;;;17.55;76.93;100701.34;5113610;28;20067;-59
2021/09/29 00:55:08;;;;;;;19.13;11.70;;;;;;;17.51;76.69;100694.91;5116617;28;20055;-59
2021/09/29 00:57:34;;;;;;;16.15;11.60;;;;;;;17.47;76.56;100700.69;5116470;28;20023;-58
2021/09/29 00:59:59;;;;;;;17.95;11.57;;;;;;;17.39;76.38;100693.59;5116361;28;20034;-59
2021/09/29 01:02:25;;;;;;;17.65;11.70;;;;;;;17.33;76.91;100694.56;5116176;28;20023;-59
2021/09/29 01:04:51;;;;;;;16.67;12.15;;;;;;;17.27;76.74;100697.13;5116340;28;20331;-59
2021/09/29 01:07:39;;;;;;;17.30;11.55;;;;;;;17.27;77.01;100694.28;5115859;28;20038;-58
2021/09/29 01:10:21;;;;;;;19.65;11.75;;;;;;;17.23;77.05;100694.34;5113162;28;20066;-59
2021/09/29 01:12:49;;;;;;;;;;;;;;;17.20;76.82;100697.28;5116583;28;20032;-59
2021/09/29 01:15:26;;;;;;;20.63;12.20;;;;;;;17.17;77.16;100687.59;5115822;28;19943;-59
2021/09/29 01:17:57;;;;;;;21.45;12.90;;;;;;;17.14;77.22;100693.38;5116151;28;20024;-57
2021/09/29 01:20:34;;;;;;;21.05;12.60;;;;;;;17.07;77.48;100693.53;5116466;28;20386;-59
2021/09/29 01:23:09;;;;;;;20.30;13.30;;;;;;;17.01;77.73;100689.63;5116097;28;20080;-58
2021/09/29 01:25:54;;;;;;;17.88;12.73;;;;;;;16.96;78.10;100700.22;5116244;28;20119;-59
2021/09/29 01:28:44;;;;;;;19.40;13.20;;;;;;;16.91;77.95;100695.06;5102212;28;20027;-58
2021/09/29 01:31:10;;;;;;;18.23;13.55;;;;;;;16.89;78.54;100689.03;5115558;28;20043;-59
2021/09/29 01:33:36;;;;;;;22.10;14.25;;;;;;;16.88;78.73;100690.28;5116095;28;20098;-59
2021/09/29 01:36:02;;;;;;;22.80;16.85;;;;;;;16.86;79.71;100692.75;5115930;28;20039;-59
2021/09/29 01:38:29;;;;;;;22.45;18.10;;;;;;;16.86;80.10;100689.91;5114302;28;20069;-59
2021/09/29 01:40:55;;;;;;;24.00;18.35;;;;;;;16.84;81.14;100692.41;5115998;28;20055;-60
2021/09/29 01:43:20;;;;;;;25.30;20.35;;;;;;;16.85;81.92;100687.53;5115385;28;20062;-60
2021/09/29 01:45:49;;;;;;;26.52;19.23;;;;;;;16.82;82.52;100683.53;5115868;28;20292;-59
2021/09/29 01:48:18;;;;;;;30.25;21.27;;;;;;;16.80;82.67;100686.00;5115586;28;20035;-58
2021/09/29 01:50:47;;;;;;;28.52;22.05;;;;;;;16.78;83.61;100679.16;5115713;28;20035;-58
2021/09/29 01:53:16;;;;;;;30.65;22.50;;;;;;;16.76;84.18;100676.78;5115738;28;20035;-59
2021/09/29 01:55:42;;;;;;;32.17;24.75;;;;;;;16.76;84.74;100673.94;5116227;28;20358;-59
2021/09/29 01:58:07;;;;;;;30.63;24.70;;;;;;;16.75;85.13;100680.84;5115556;28;20296;-59
2021/09/29 02:00:33;;;;;;;35.70;25.73;;;;;;;16.74;85.77;100676.41;5101607;28;20084;-59
2021/09/29 02:02:59;;;;;;;36.00;26.88;;;;;;;16.72;86.45;100680.94;5115765;28;20028;-59
2021/09/29 02:05:30;;;;;;;43.25;28.50;;;;;;;16.71;87.00;100685.81;5115600;28;20031;-60
2021/09/29 02:07:57;;;;;;;40.07;28.70;;;;;;;16.67;87.52;100683.00;5115633;28;20027;-59
2021/09/29 02:10:23;;;;;;;40.53;29.25;;;;;;;16.67;88.67;100687.91;5115476;28;20248;-59
2021/09/29 02:12:48;;;;;;;41.55;30.08;;;;;;;16.67;88.88;100694.38;5115810;28;20035;-59
2021/09/29 02:15:14;;;;;;;38.28;29.15;;;;;;;16.66;89.34;100677.78;5115245;28;20078;-59
2021/09/29 02:17:39;;;;;;;41.40;28.10;;;;;;;16.63;89.69;100689.97;5115716;28;20027;-59
2021/09/29 02:20:06;;;;;;;48.00;29.70;;;;;;;16.66;90.49;100689.13;5118540;28;20106;-59
2021/09/29 02:22:31;;;;;;;45.55;29.60;;;;;;;16.65;90.31;100681.81;5119464;28;20057;-60
2021/09/29 02:24:57;;;;;;;43.55;29.25;;;;;;;16.66;91.09;100680.63;5119409;28;20036;-60
2021/09/29 02:27:22;;;;;;;40.30;27.45;;;;;;;16.65;91.34;100676.16;5119213;28;20036;-59
2021/09/29 02:29:47;;;;;;;42.63;28.25;;;;;;;16.68;91.21;100678.13;5119581;28;20027;-60
2021/09/29 02:32:13;;;;;;;44.58;29.10;;;;;;;16.69;91.51;100674.88;5119263;28;20032;-59
2021/09/29 02:34:39;;;;;;;49.88;29.50;;;;;;;16.67;91.19;100676.53;5119237;28;20028;-60
2021/09/29 02:37:04;;;;;;;45.00;27.70;;;;;;;16.69;91.75;100676.91;5119486;28;20415;-59
2021/09/29 02:39:30;;;;;;;50.25;29.55;;;;;;;16.71;92.11;100677.28;5119213;28;20039;-59
2021/09/29 02:41:55;;;;;;;47.80;28.33;;;;;;;16.73;91.88;100689.00;5119085;28;20369;-59
2021/09/29 02:44:20;;;;;;;45.30;26.27;;;;;;;16.70;91.91;100687.00;5119030;28;20038;-59
2021/09/29 02:46:46;;;;;;;50.40;29.17;;;;;;;16.68;91.71;100678.13;5118907;28;20055;-60
2021/09/29 02:49:11;;;;;;;50.08;28.17;;;;;;;16.67;92.26;100682.22;5118781;28;20032;-59
2021/09/29 02:51:37;;;;;;;48.33;27.10;;;;;;;16.66;92.04;100687.09;5118577;28;20092;-60
2021/09/29 02:54:03;;;;;;;46.90;26.58;;;;;;;16.66;92.87;100683.47;5119064;28;20035;-59
2021/09/29 02:56:29;;;;;;;48.88;27.15;;;;;;;16.66;92.67;100683.47;5118363;28;20053;-59
2021/09/29 02:58:57;;;;;;;55.17;27.33;;;;;;;16.64;92.57;100683.88;5118984;28;20028;-59
2021/09/29 03:01:22;;;;;;;46.22;26.20;;;;;;;16.64;93.02;100683.88;5118765;28;20032;-59
2021/09/29 03:03:47;;;;;;;49.85;25.95;;;;;;;16.64;93.09;100683.88;5118730;28;20038;-59
2021/09/29 03:06:13;;;;;;;48.33;26.50;;;;;;;16.62;93.24;100685.53;5118965;28;20063;-59
2021/09/29 03:08:38;;;;;;;45.75;26.02;;;;;;;16.61;93.42;100679.06;5118648;28;20031;-59
2021/09/29 03:11:03;;;;;;;47.45;26.75;;;;;;;16.59;93.30;100687.22;5118377;28;20415;-59
2021/09/29 03:13:29;;;;;;;46.13;25.95;;;;;;;16.60;94.00;100685.97;5118343;28;20423;-59
2021/09/29 03:15:54;;;;;;;45.05;26.40;;;;;;;16.61;93.68;100675.44;5118561;28;20042;-60
2021/09/29 03:18:20;;;;;;;44.33;25.17;;;;;;;16.61;93.72;100678.25;5118972;28;20118;-60
2021/09/29 03:20:46;;;;;;;46.97;26.80;;;;;;;16.65;93.73;100676.16;5118236;28;20036;-58
2021/09/29 03:23:11;;;;;;;45.42;25.63;;;;;;;16.64;93.64;100678.19;5118371;28;20015;-59
2021/09/29 03:25:37;;;;;;;50.00;26.80;;;;;;;16.63;93.88;100676.59;5118477;28;20312;-60
2021/09/29 03:28:02;;;;;;;43.63;25.15;;;;;;;16.61;93.88;100666.91;5118054;28;20096;-60
2021/09/29 03:30:28;;;;;;;52.75;26.60;;;;;;;16.63;94.57;100676.59;5117978;28;20035;-60
2021/09/29 03:32:53;;;;;;;47.58;25.23;;;;;;;16.63;94.56;100684.31;5118174;28;20074;-59
2021/09/29 03:35:19;;;;;;;52.03;25.40;;;;;;;16.62;94.47;100680.66;5117962;28;20432;-59
2021/09/29 03:37:44;;;;;;;45.20;25.55;;;;;;;16.62;94.63;100674.19;5118077;28;20040;-59
2021/09/29 03:40:13;;;;;;;58.22;27.27;;;;;;;16.63;94.95;100675.78;5117801;28;20051;-59
2021/09/29 03:42:38;;;;;;;52.08;25.58;;;;;;;16.62;94.98;100679.88;5117812;28;20050;-58
2021/09/29 03:45:05;;;;;;;56.38;28.60;;;;;;;16.64;95.06;100674.56;5117869;28;20027;-58
2021/09/29 03:47:30;;;;;;;50.40;26.17;;;;;;;16.65;94.77;100671.28;5118193;28;20028;-59
2021/09/29 03:49:56;;;;;;;55.08;26.48;;;;;;;16.64;95.06;100671.72;5117787;28;20054;-58
2021/09/29 03:52:22;;;;;;;51.40;26.98;;;;;;;16.65;95.08;100679.00;5117707;28;20343;-58
2021/09/29 03:54:47;;;;;;;48.28;26.17;;;;;;;16.65;95.37;100673.31;5117739;28;20478;-60
2021/09/29 03:57:13;;;;;;;56.63;28.35;;;;;;;16.68;95.53;100678.13;5117635;28;20035;-59
2021/09/29 03:59:38;;;;;;;54.22;27.10;;;;;;;16.75;94.89;100672.34;5117669;28;20084;-59
2021/09/29 04:02:04;;;;;;;47.83;25.17;;;;;;;16.75;94.88;100672.34;5117544;28;20055;-60
2021/09/29 04:04:30;;;;;;;53.30;25.27;;;;;;;16.72;94.55;100673.22;5117436;28;20031;-58
2021/09/29 04:06:55;;;;;;;54.20;25.65;;;;;;;16.74;94.10;100673.56;5117266;28;20036;-59
2021/09/29 04:09:20;;;;;;;52.50;26.35;;;;;;;16.72;94.01;100672.41;5117143;28;20055;-59
2021/09/29 04:11:46;;;;;;;50.40;25.17;;;;;;;16.71;94.11;100677.28;5117333;28;20035;-56
2021/09/29 04:14:11;;;;;;;48.08;24.80;;;;;;;16.73;93.86;100674.81;5117279;28;20023;-59
2021/09/29 04:16:37;;;;;;;52.85;25.38;;;;;;;16.71;93.71;100670.78;5117578;28;20043;-56
2021/09/29 04:19:02;;;;;;;50.25;23.92;;;;;;;16.74;93.76;100673.56;5117480;28;20073;-58
2021/09/29 04:21:28;;;;;;;44.33;23.40;;;;;;;16.75;93.64;100674.38;5117174;28;20028;-60
2021/09/29 04:23:53;;;;;;;44.42;23.00;;;;;;;16.74;93.54;100678.44;5098941;28;20434;-59
2021/09/29 04:26:18;;;;;;;47.35;24.05;;;;;;;16.75;92.83;100675.16;5117017;28;20031;-59
2021/09/29 04:28:44;;;;;;;43.20;23.35;;;;;;;16.76;92.63;100682.44;5116990;28;20415;-59
2021/09/29 04:31:10;;;;;;;45.03;22.88;;;;;;;16.77;91.95;100680.41;5116748;28;20487;-58
2021/09/29 04:33:35;;;;;;;43.05;22.80;;;;;;;16.75;92.07;100683.69;5117058;28;20063;-59
2021/09/29 04:36:01;;;;;;;42.95;22.73;;;;;;;16.72;92.06;100684.56;5117100;28;20327;-58
2021/09/29 04:38:26;;;;;;;40.42;21.92;;;;;;;16.70;92.04;100684.19;5116485;28;20028;-58
2021/09/29 04:40:52;;;;;;;41.20;21.23;;;;;;;16.68;92.06;100684.63;5116878;28;20100;-57
2021/09/29 04:43:17;;;;;;;41.25;21.92;;;;;;;16.67;91.83;100683.00;5116364;28;20057;-58
2021/09/29 04:45:43;;;;;;;41.35;22.38;;;;;;;16.67;91.86;100677.34;5116088;28;20031;-60
2021/09/29 04:48:08;;;;;;;41.78;22.65;;;;;;;16.66;91.98;100674.94;5111988;28;20071;-59
2021/09/29 04:50:35;;;;;;;37.53;20.63;;;;;;;16.67;91.86;100685.84;5110695;28;20038;-58
2021/09/29 04:53:01;;;;;;;40.83;20.13;;;;;;;16.65;92.26;100681.81;5104895;28;20044;-59
2021/09/29 04:55:26;;;;;;;39.85;21.10;;;;;;;16.63;92.13;100682.25;5109596;28;20031;-59
2021/09/29 04:57:52;;;;;;;39.40;20.92;;;;;;;16.68;92.23;100683.81;5105851;28;20131;-59
2021/09/29 05:00:18;;;;;;;41.75;21.45;;;;;;;16.71;91.96;100682.13;5105830;28;20085;-59
2021/09/29 05:02:45;;;;;;;40.58;20.52;;;;;;;16.72;91.38;100683.78;5106289;28;20119;-60
2021/09/29 05:05:11;;;;;;;37.90;21.27;;;;;;;16.74;91.27;100682.09;5104592;28;20157;-59
2021/09/29 05:07:40;;;;;;;35.22;19.65;;;;;;;16.73;91.09;100685.38;5104738;28;20411;-59
2021/09/29 05:10:10;;;;;;;33.35;19.52;;;;;;;16.72;91.21;100689.44;5110657;28;20031;-58
2021/09/29 05:12:37;;;;;;;43.88;21.85;;;;;;;16.66;91.05;100697.66;5116070;28;20043;-59
2021/09/29 05:15:02;;;;;;;34.55;19.90;;;;;;;16.62;91.45;100694.06;5116131;28;20359;-59
2021/09/29 05:17:28;;;;;;;38.92;20.90;;;;;;;16.65;91.32;100693.19;5115910;28;20032;-59
2021/09/29 05:19:54;;;;;;;30.73;18.95;;;;;;;16.58;91.30;100691.28;5115649;28;20036;-59
2021/09/29 05:22:19;;;;;;;33.30;19.55;;;;;;;16.59;91.52;100694.94;5115422;28;20031;-59
2021/09/29 05:24:45;;;;;;;38.95;19.08;;;;;;;16.57;91.59;100695.38;5114902;28;20111;-59
2021/09/29 05:27:10;;;;;;;34.22;19.17;;;;;;;16.57;91.43;100694.56;5098013;28;20054;-59
2021/09/29 05:29:39;;;;;;;33.13;18.80;;;;;;;16.57;91.73;100703.09;5115752;28;20039;-59
2021/09/29 05:32:04;;;;;;;34.17;20.17;;;;;;;16.58;91.43;100707.53;5116297;28;20028;-59
2021/09/29 05:34:30;;;;;;;40.47;19.35;;;;;;;16.57;91.61;100714.44;5114326;28;20101;-60
2021/09/29 05:36:56;;;;;;;34.08;19.67;;;;;;;16.54;91.84;100707.59;5116001;28;20053;-59
2021/09/29 05:39:22;;;;;;;38.33;18.60;;;;;;;16.55;92.04;100708.41;5115699;28;20085;-58
2021/09/29 05:41:48;;;;;;;40.05;21.02;;;;;;;16.57;92.37;100708.75;5116178;28;20365;-59
2021/09/29 05:44:13;;;;;;;42.08;20.83;;;;;;;16.60;91.76;100713.56;5115792;28;20043;-59
2021/09/29 05:46:39;;;;;;;38.97;21.90;;;;;;;16.56;91.79;100710.00;5115763;28;20059;-59
2021/09/29 05:49:04;;;;;;;35.78;20.73;;;;;;;16.57;91.91;100708.75;5115855;28;20061;-59
2021/09/29 05:51:29;;;;;;;37.72;20.20;;;;;;;16.56;91.87;100710.00;5098013;28;20028;-60
2021/09/29 05:53:55;;;;;;;36.83;21.65;;;;;;;16.53;91.97;100710.88;5096872;28;20040;-59
2021/09/29 05:56:21;;;;;;;38.80;20.30;;;;;;;16.53;92.62;100722.22;5099209;28;20085;-59
2021/09/29 05:58:46;;;;;;;38.25;22.00;;;;;;;16.53;92.83;100716.56;5099591;28;20039;-59
2021/09/29 06:01:12;;;;;;;35.67;20.58;;;;;;;16.53;92.55;100719.38;5099464;28;20024;-60
2021/09/29 06:03:37;;;;;;;40.50;19.63;;;;;;;16.53;92.85;100719.38;5099039;28;20039;-59
2021/09/29 06:06:03;;;;;;;39.28;20.85;;;;;;;16.53;93.30;100722.22;5081696;28;20063;-59
2021/09/29 06:08:28;;;;;;;36.63;19.55;;;;;;;16.55;93.18;100714.06;5099102;28;20035;-60
2021/09/29 06:10:54;;;;;;;36.10;19.83;;;;;;;16.55;93.21;100719.75;5099716;28;20411;-60
2021/09/29 06:13:19;;;;;;;36.08;20.17;;;;;;;16.56;93.45;100724.19;5099176;28;20036;-59
2021/09/29 06:15:46;;;;;;;32.65;19.55;;;;;;;16.56;93.82;100727.03;5099192;28;20036;-59
2021/09/29 06:18:13;;;;;;;34.67;19.67;;;;;;;16.57;93.83;100731.47;5099295;28;20319;-59
2021/09/29 06:20:43;;;;;;;33.95;19.27;;;;;;;16.54;93.99;100730.31;5098906;28;20039;-60
2021/09/29 06:23:08;;;;;;;37.42;20.02;;;;;;;16.55;94.17;100731.91;5099267;28;20059;-59
2021/09/29 06:25:34;;;;;;;37.83;22.42;;;;;;;16.56;94.13;100727.03;5099319;28;20161;-59
2021/09/29 06:27:59;;;;;;;41.15;22.50;;;;;;;16.60;94.45;100739.91;5099204;28;20036;-60
2021/09/29 06:30:25;;;;;;;37.20;20.83;;;;;;;16.60;94.01;100737.06;5098885;28;20396;-59
2021/09/29 06:32:50;;;;;;;35.83;21.00;;;;;;;16.64;94.42;100739.81;5098752;28;20039;-59
2021/09/29 06:35:16;;;;;;;38.03;22.88;;;;;;;16.68;94.57;100743.41;5098765;28;20331;-59
2021/09/29 06:37:44;;;;;;;38.13;20.95;;;;;;;16.72;93.33;100741.34;5099004;28;20032;-59
2021/09/29 06:40:16;;;;;;;39.20;22.38;;;;;;;16.71;93.76;100738.91;5098749;28;20455;-57
2021/09/29 06:42:42;;;;;;;39.67;21.90;;;;;;;16.71;94.30;100750.25;5098502;28;20036;-59
2021/09/29 06:45:10;;;;;;;39.50;21.65;;;;;;;16.71;94.41;100756.75;5098698;28;20111;-59
2021/09/29 06:47:38;;;;;;;42.75;21.45;;;;;;;16.72;94.63;100755.53;5098279;28;20332;-59
2021/09/29 06:50:05;;;;;;;40.88;21.23;;;;;;;16.75;94.19;100753.84;5098470;28;20062;-60
2021/09/29 06:52:30;;;;;;;41.67;21.80;;;;;;;16.76;94.58;100759.09;5114321;28;20430;-59
2021/09/29 06:54:55;;;;;;;38.15;21.73;;;;;;;16.76;94.70;100756.25;5119098;28;20045;-60
2021/09/29 06:57:21;;;;;;;41.50;21.77;;;;;;;16.76;94.82;100750.56;5118810;28;20408;-60
2021/09/29 06:59:46;;;;;;;42.30;22.42;;;;;;;16.76;94.79;100761.94;5118817;28;20028;-59
2021/09/29 07:02:12;;;;;;;42.90;23.02;;;;;;;16.76;94.95;100761.94;5118722;28;20061;-60
2021/09/29 07:04:37;;;;;;;43.92;21.67;;;;;;;16.80;94.84;100762.66;5100228;28;20070;-60
2021/09/29 07:07:02;;;;;;;39.00;22.52;;;;;;;16.77;94.73;100766.38;5118781;28;20084;-59
2021/09/29 07:09:28;;;;;;;44.38;22.77;;;;;;;16.81;95.46;100772.78;5083630;28;20036;-59
2021/09/29 07:11:53;;;;;;;48.80;24.63;;;;;;;16.83;95.75;100773.13;5118535;28;20431;-59
2021/09/29 07:14:20;;;;;;;45.65;23.10;;;;;;;16.83;95.62;100778.00;5100407;28;20479;-60
2021/09/29 07:16:46;;;;;;;46.38;23.98;;;;;;;16.85;95.96;100776.34;5118175;28;20127;-58
2021/09/29 07:19:12;;;;;;;43.80;23.27;;;;;;;16.84;96.03;100783.25;5118420;28;20110;-59
2021/09/29 07:21:37;;;;;;;45.95;22.95;;;;;;;16.84;96.42;100783.25;5118331;28;20047;-60
2021/09/29 07:24:03;;;;;;;44.00;22.92;;;;;;;16.86;96.78;100785.66;5118344;28;20039;-59
2021/09/29 07:26:28;;;;;;;45.28;23.17;;;;;;;16.86;96.93;100786.44;5118235;28;20454;-59
2021/09/29 07:28:53;;;;;;;47.47;23.00;;;;;;;16.86;97.21;100792.13;5118136;28;20044;-60
2021/09/29 07:31:19;;;;;;;46.00;24.55;;;;;;;16.86;97.74;100792.13;5118052;28;20097;-60
2021/09/29 07:33:45;;;;;;;63.63;26.77;;;;;;;16.87;97.88;100788.06;5118190;28;20311;-59
2021/09/29 07:36:11;;;;;;;45.00;24.70;;;;;;;16.90;98.52;100789.22;5118031;28;20036;-59
2021/09/29 07:38:37;;;;;;;48.20;24.90;;;;;;;16.91;98.66;100785.94;5118031;28;20019;-59
2021/09/29 07:41:02;;;;;;;42.10;22.42;;;;;;;16.92;98.37;100786.75;5118037;28;20031;-59
2021/09/29 07:43:28;;;;;;;38.30;24.13;;;;;;;16.94;98.97;100787.91;5117945;28;20407;-60
2021/09/29 07:45:53;;;;;;;42.72;24.15;;;;;;;16.98;99.52;100788.66;5117467;28;20100;-60
2021/09/29 07:48:18;;;;;;;37.35;23.17;;;;;;;16.99;99.05;100784.56;5096361;28;20042;-59
2021/09/29 07:50:44;;;;;;;42.00;23.85;;;;;;;16.99;99.36;100781.72;5111532;28;20077;-60
2021/09/29 07:53:12;;;;;;;39.17;22.77;;;;;;;16.99;99.53;100787.41;5117456;28;20039;-59
2021/09/29 07:55:37;;;;;;;44.88;28.60;;;;;;;17.04;99.70;100790.97;5118208;28;20062;-59
2021/09/29 07:58:03;;;;;;;43.10;25.52;;;;;;;17.05;99.67;100792.56;5117594;28;20372;-59
2021/09/29 08:00:28;;;;;;;49.28;28.83;;;;;;;17.05;99.36;100804.72;5117261;28;20032;-59
2021/09/29 08:02:54;;;;;;;43.72;25.20;;;;;;;17.06;98.82;100800.66;5117759;28;20035;-60
2021/09/29 08:05:20;;;;;;;43.78;24.70;;;;;;;17.07;99.26;100804.28;5117711;28;20035;-59
2021/09/29 08:07:49;;;;;;;44.63;25.73;;;;;;;17.09;99.38;100802.63;5117813;28;20028;-60
2021/09/29 08:10:14;;;;;;;47.70;25.40;;;;;;;17.10;99.57;100798.53;5117303;28;20487;-59
2021/09/29 08:12:40;;;;;;;43.47;25.45;;;;;;;17.13;99.18;100803.34;5117795;28;20027;-59
2021/09/29 08:15:13;;;;;;;86.22;48.17;;;;;;;17.14;99.16;100801.28;5117136;28;20362;-59
2021/09/29 08:17:43;;;;;;;52.42;28.40;;;;;;;17.15;98.93;100802.91;5116556;28;20536;-59
2021/09/29 08:20:15;;;;;;;47.97;25.42;;;;;;;17.15;99.17;100802.91;5117430;28;20055;-59
2021/09/29 08:22:41;;;;;;;47.55;25.65;;;;;;;17.16;99.18;100795.97;5103740;28;20034;-59
2021/09/29 08:28:11;;;;;;;43.80;25.20;;;;;;;17.23;98.76;100798.66;5117412;28;20434;-58
2021/09/29 08:31:00;;;;;;;40.83;25.02;;;;;;;17.25;98.89;100802.66;5116970;28;20327;-59
2021/09/29 08:36:01;;;;;;;45.10;26.38;;;;;;;17.33;98.52;100808.22;5117265;28;20029;-59
2021/09/29 08:38:32;;;;;;;47.78;26.10;;;;;;;17.35;97.98;100806.53;5116775;28;20034;-59
2021/09/29 08:46:00;;;;;;;47.17;27.20;;;;;;;17.41;97.71;100816.13;5116788;28;20114;-59
2021/09/29 08:48:36;;;;;;;50.60;27.10;;;;;;;17.42;97.99;100814.88;5116719;28;20027;-59
2021/09/29 08:53:56;;;;;;;62.72;34.83;;;;;;;17.44;98.24;100820.94;5116685;28;20410;-59
2021/09/29 08:56:39;;;;;;;46.75;27.17;;;;;;;17.45;98.04;100811.16;5098208;28;20024;-59
2021/09/29 09:15:51;;;;;;;50.45;27.98;;;;;;;17.60;97.97;100823.81;5116107;28;20053;-59
2021/09/29 09:18:17;;;;;;;48.72;27.52;;;;;;;17.64;98.17;100825.78;5116544;28;20032;-60
2021/09/29 09:20:49;;;;;;;51.42;28.63;;;;;;;17.66;98.05;100820.47;5115954;28;20031;-59
2021/09/29 09:23:14;;;;;;;54.15;28.75;;;;;;;17.69;97.58;100819.59;5116152;28;20307;-59
2021/09/29 09:25:42;;;;;;;53.83;30.35;;;;;;;17.71;97.07;100817.91;5116354;28;20042;-59
2021/09/29 09:28:14;;;;;;;52.30;29.65;;;;;;;17.73;97.34;100809.75;5115997;28;20050;-59
2021/09/29 09:30:40;;;;;;;52.90;29.48;;;;;;;17.78;97.22;100822.63;5116253;28;20051;-59
2021/09/29 09:33:06;;;;;;;51.00;29.92;;;;;;;17.80;97.48;100822.97;5115977;28;20089;-59
2021/09/29 09:35:46;;;;;;;52.92;30.10;;;;;;;17.83;97.03;100824.97;5115906;28;20031;-60
2021/09/29 09:38:16;;;;;;;51.22;29.80;;;;;;;17.84;96.54;100818.84;5116109;28;20030;-60
2021/09/29 09:40:42;;;;;;;55.33;31.10;;;;;;;17.85;96.57;100820.44;5115884;28;20357;-60
2021/09/29 09:43:08;;;;;;;54.55;31.80;;;;;;;17.90;96.83;100816.25;5115873;28;20103;-59
2021/09/29 09:45:48;;;;;;;55.78;32.58;;;;;;;17.92;97.30;100816.63;5115921;28;20035;-60
2021/09/29 09:48:22;;;;;;;51.75;29.85;;;;;;;17.95;96.70;100823.44;5116049;28;20082;-60
2021/09/29 09:51:10;;;;;;;48.67;29.38;;;;;;;17.97;96.31;100816.06;5115441;28;20079;-60
2021/09/29 09:53:36;;;;;;;49.85;31.33;;;;;;;18.00;96.52;100811.53;5115673;28;20024;-59
2021/09/29 09:56:23;;;;;;;63.50;33.72;;;;;;;18.04;96.49;100818.75;5116019;28;20040;-60
2021/09/29 09:58:50;;;;;;;56.67;32.47;;;;;;;18.08;96.42;100822.31;5115821;28;20034;-59
2021/09/29 10:01:20;;;;;;;56.33;33.88;;;;;;;18.09;97.20;100808.91;5116047;28;20035;-59
2021/09/29 10:03:47;;;;;;;53.65;33.13;;;;;;;18.09;97.01;100815.38;5115733;28;20031;-59
2021/09/29 10:06:13;;;;;;;55.72;34.53;;;;;;;18.10;96.56;100822.69;5115855;28;20419;-59
2021/09/29 10:08:41;;;;;;;57.03;34.30;;;;;;;18.14;97.13;100831.13;5115574;28;20415;-59
2021/09/29 10:11:17;;;;;;;55.40;33.22;;;;;;;18.15;97.01;100824.97;5115465;28;20031;-60
2021/09/29 10:28:00;;;;;;;53.78;35.05;;;;;;;18.39;95.49;100821.94;5115671;28;20046;-59
2021/09/29 10:30:38;;;;;;;55.53;36.30;;;;;;;18.45;95.29;100823.00;5115322;28;20044;-59
2021/09/29 10:33:06;;;;;;;49.92;32.55;;;;;;;18.48;94.73;100820.06;5115412;28;20063;-59
2021/09/29 10:35:47;;;;;;;57.28;36.95;;;;;;;18.52;94.46;100822.81;5115536;28;20027;-59
2021/09/29 10:43:20;;;;;;;54.70;35.90;;;;;;;18.69;93.93;100821.56;5119539;28;20024;-59
2021/09/29 10:49:05;;;;;;;55.28;36.75;;;;;;;18.78;93.59;100810.31;5087292;28;20032;-58
2021/09/29 11:27:38;;;;;;;49.20;32.83;;;;;;;19.24;89.85;100796.81;5118449;28;20168;-59
2021/09/29 11:30:18;;;;;;;46.75;30.92;;;;;;;19.27;87.14;100795.91;5118422;28;20177;-60
2021/09/29 11:32:58;;;;;;;46.13;29.58;;;;;;;19.29;85.95;100782.00;5118204;28;20063;-59
2021/09/29 11:49:56;;;;;;;36.00;26.83;;;;;;;19.34;83.09;100778.56;5103849;28;20074;-59
2021/09/29 12:11:42;;;;;;;40.72;27.20;;;;;;;19.57;81.89;100776.69;5117889;28;20411;-59
2021/09/29 12:14:20;;;;;;;39.03;26.35;;;;;;;19.60;81.61;100779.41;5117452;28;20055;-59
2021/09/29 12:16:48;;;;;;;36.38;24.13;;;;;;;19.62;81.18;100770.41;5117818;28;20040;-59
2021/09/29 12:19:26;;;;;;;35.38;25.23;;;;;;;19.63;81.21;100774.84;5103639;28;20043;-59
2021/09/29 12:21:55;;;;;;;39.10;25.23;;;;;;;19.62;81.12;100771.22;5117094;28;20381;-59
2021/09/29 12:24:42;;;;;;;32.55;24.63;;;;;;;19.66;81.28;100773.94;5095772;28;20028;-60
2021/09/29 12:27:07;;;;;;;37.25;26.38;;;;;;;19.69;81.58;100779.53;5112694;28;20036;-59
2021/09/29 12:29:47;;;;;;;37.15;25.92;;;;;;;19.70;81.18;100774.63;5117173;28;20365;-60
2021/09/29 12:32:26;;;;;;;36.55;26.00;;;;;;;19.72;80.77;100775.78;5116774;28;20043;-59
2021/09/29 12:35:19;;;;;;;37.70;27.23;;;;;;;19.72;81.23;100774.97;5116954;28;20442;-59
2021/09/29 12:37:58;;;;;;;41.53;27.63;;;;;;;19.75;81.29;100774.06;5117173;28;20123;-60
2021/09/29 12:40:26;;;;;;;38.33;26.75;;;;;;;19.74;80.75;100773.28;5117191;28;20039;-59
2021/09/29 12:43:03;;;;;;;33.72;24.88;;;;;;;19.75;81.10;100783.44;5116760;28;20138;-59
2021/09/29 12:45:35;;;;;;;38.42;26.50;;;;;;;19.77;81.81;100780.13;5116841;28;20027;-59
2021/09/29 12:48:02;;;;;;;40.22;26.88;;;;;;;19.78;81.09;100789.47;5116449;28;20027;-60
2021/09/29 12:50:43;;;;;;;34.80;25.10;;;;;;;19.77;80.41;100796.44;5116482;28;20415;-59
2021/09/29 12:58:19;;;;;;;35.97;26.88;;;;;;;19.74;80.83;100796.09;5116557;28;20434;-59
2021/09/29 13:00:45;;;;;;;34.25;25.42;;;;;;;19.73;80.46;100788.00;5116541;28;20043;-59
2021/09/29 13:03:12;;;;;;;36.53;25.75;;;;;;;19.73;80.49;100791.66;5116014;28;20032;-59
2021/09/29 13:05:37;;;;;;;34.53;26.58;;;;;;;19.73;81.13;100788.78;5116323;28;20039;-59
2021/09/29 13:08:03;;;;;;;36.30;26.10;;;;;;;19.75;80.75;100786.28;5116229;28;20040;-59
2021/09/29 13:10:28;;;;;;;38.83;26.35;;;;;;;19.77;80.47;100785.81;5116201;28;20031;-59
2021/09/29 13:12:53;;;;;;;33.97;25.90;;;;;;;19.72;80.45;100781.50;5116462;28;20040;-59
2021/09/29 13:15:20;;;;;;;34.35;26.48;;;;;;;19.72;81.32;100780.66;5116068;28;20031;-59
2021/09/29 13:17:49;;;;;;;36.40;26.92;;;;;;;19.69;81.55;100779.53;5116621;28;20314;-59
2021/09/29 13:20:20;;;;;;;36.88;27.98;;;;;;;19.69;81.71;100781.59;5115960;28;20031;-59